CWRX

Rowley Island Airport

Canada
METAR CWRX 201138Z AUTO 33023G31KT ////SM //// OVC003 M27/M30 A2993
Observed Flight Rules
Nov-20 @ 11:38 UTC (34 minutes ago)
Wind Clouds
330° at 23 knots
 Gusting to 31 knots
  • Overcast at 300' AGL
Temperatures Readings
Current -27°C / -17°F
Dewpoint -30°C / -22°F
Humidity 76%
Altimeter 29.93" Hg
Pressure 1014 hPa
Elevation 41
METAR CWRX 201138Z AUTO 33023G31KT ////SM //// OVC003 M27/M30 A2993
Observed Flight Rules
Nov-20 @ 11:38 UTC
(34 minutes ago)
Wind
330° at 23 knots
 Gusting to 31 knots
Clouds
  • Overcast at 300' AGL
Temperature Dewpoint
-27°C / -17°F -30°C / -22°F
Humidity Altimeter Pressure
76% 29.93" Hg 1014 hPa